Time;durP1;ratioP1;P1;durP2;ratioP2;P2;SDS_P1;SDS_P2;PMS_P1;PMS_P2;Temp;Humidity;BMP_temperature;BMP_pressure;BME280_temperature;BME280_humidity;BME280_pressure;Samples;Min_cycle;Max_cycle;Signal;HPM_P1;HPM_P2
2023/07/17 00:00:36;;;;;;;24.42;22.40;;;13.60;99.90;;;;;;5017149;28;20053;-71
2023/07/17 00:03:12;;;;;;;24.10;21.92;;;13.60;99.90;;;;;;5023837;28;20067;-71
2023/07/17 00:05:39;;;;;;;24.45;22.33;;;13.60;99.90;;;;;;5024346;28;20567;-71
2023/07/17 00:08:06;;;;;;;25.00;22.52;;;13.70;99.90;;;;;;5030049;28;20048;-70
2023/07/17 00:10:33;;;;;;;24.35;22.35;;;13.80;99.90;;;;;;5017531;28;20729;-71
2023/07/17 00:13:00;;;;;;;24.50;22.50;;;13.80;99.90;;;;;;5020222;28;20053;-71
2023/07/17 00:15:26;;;;;;;25.75;23.63;;;13.80;99.90;;;;;;5022818;28;20064;-71
2023/07/17 00:17:53;;;;;;;25.38;22.80;;;13.80;99.90;;;;;;5025153;28;20048;-71
2023/07/17 00:20:20;;;;;;;24.70;22.58;;;13.80;99.90;;;;;;5021112;28;20053;-72
2023/07/17 00:22:47;;;;;;;24.67;22.48;;;13.90;99.90;;;;;;5026331;28;20033;-72
2023/07/17 00:25:14;;;;;;;23.98;22.08;;;13.90;99.90;;;;;;5014124;28;21108;-73
2023/07/17 00:27:41;;;;;;;24.13;22.13;;;13.80;99.90;;;;;;5023597;28;20087;-71
2023/07/17 00:30:08;;;;;;;23.90;21.80;;;13.90;99.90;;;;;;5034480;28;20042;-69
2023/07/17 00:32:35;;;;;;;23.98;22.00;;;13.90;99.90;;;;;;5059064;28;20101;-70
2023/07/17 00:35:02;;;;;;;25.58;23.25;;;13.90;99.90;;;;;;5043515;28;20068;-70
2023/07/17 00:37:29;;;;;;;25.08;22.88;;;13.90;99.90;;;;;;5033027;28;20488;-71
2023/07/17 00:39:56;;;;;;;26.08;23.67;;;13.80;99.90;;;;;;5021830;28;20053;-71
2023/07/17 00:42:23;;;;;;;25.70;23.50;;;13.80;99.90;;;;;;5019915;28;20495;-71
2023/07/17 00:44:49;;;;;;;25.85;23.23;;;13.60;99.90;;;;;;5026395;28;20450;-70
2023/07/17 00:47:17;;;;;;;25.95;23.50;;;13.60;99.90;;;;;;5025510;28;20056;-74
2023/07/17 00:49:44;;;;;;;25.85;23.42;;;13.50;99.90;;;;;;5025308;28;20037;-70
2023/07/17 00:52:11;;;;;;;24.52;22.45;;;13.50;99.90;;;;;;5021309;28;20061;-71
2023/07/17 00:54:41;;;;;;;24.70;22.38;;;13.50;99.90;;;;;;5017846;28;20025;-72
2023/07/17 00:57:11;;;;;;;25.02;22.92;;;13.50;99.90;;;;;;5020820;28;20475;-72
2023/07/17 00:59:39;;;;;;;24.75;22.45;;;13.50;99.90;;;;;;5028955;28;20057;-72
2023/07/17 01:02:06;;;;;;;24.90;22.75;;;13.30;99.90;;;;;;5019934;28;20045;-71
2023/07/17 01:04:33;;;;;;;24.80;22.25;;;13.10;99.90;;;;;;5036825;28;20056;-71
2023/07/17 01:07:00;;;;;;;25.17;22.98;;;13.20;99.90;;;;;;5020239;28;20034;-71
2023/07/17 01:09:28;;;;;;;25.08;22.83;;;13.30;99.90;;;;;;5010581;28;20054;-71
2023/07/17 01:11:55;;;;;;;24.17;22.10;;;13.30;99.90;;;;;;5024451;28;20033;-73
2023/07/17 01:14:22;;;;;;;26.17;23.60;;;13.30;99.90;;;;;;5017619;28;20072;-71
2023/07/17 01:16:49;;;;;;;25.08;23.02;;;13.30;99.90;;;;;;5019842;28;20122;-71
2023/07/17 01:19:16;;;;;;;25.38;22.85;;;13.30;99.90;;;;;;5023280;28;20146;-71
2023/07/17 01:21:50;;;;;;;27.33;23.48;;;13.20;99.90;;;;;;5024040;28;20140;-71
2023/07/17 01:24:18;;;;;;;24.90;22.80;;;13.20;99.90;;;;;;5019477;28;20052;-72
2023/07/17 01:26:45;;;;;;;24.48;22.50;;;13.20;99.90;;;;;;5039469;28;20095;-72
2023/07/17 01:29:11;;;;;;;23.98;21.98;;;13.20;99.90;;;;;;5017759;28;20592;-72
2023/07/17 01:31:40;;;;;;;23.58;21.75;;;13.20;99.90;;;;;;5019992;28;20095;-71
2023/07/17 01:34:07;;;;;;;24.35;22.30;;;13.00;99.90;;;;;;5023745;28;20123;-71
2023/07/17 01:36:34;;;;;;;24.52;22.40;;;13.00;99.90;;;;;;5035120;28;20518;-71
2023/07/17 01:39:02;;;;;;;24.73;22.70;;;13.00;99.90;;;;;;5018055;28;20048;-71
2023/07/17 01:41:29;;;;;;;24.50;22.52;;;13.00;99.90;;;;;;5021426;28;20080;-72
2023/07/17 01:43:57;;;;;;;26.15;23.65;;;13.00;99.90;;;;;;5020302;28;20045;-71
2023/07/17 01:46:23;;;;;;;24.20;22.02;;;12.90;99.90;;;;;;5024251;28;20504;-72
2023/07/17 01:48:50;;;;;;;25.63;23.13;;;12.80;99.90;;;;;;5031771;28;20500;-71
2023/07/17 01:51:17;;;;;;;24.88;22.77;;;12.80;99.90;;;;;;5021715;28;20037;-72
2023/07/17 01:53:44;;;;;;;25.48;23.00;;;12.80;99.90;;;;;;5024314;28;20049;-72
2023/07/17 01:56:11;;;;;;;26.02;23.63;;;12.80;99.90;;;;;;5025372;28;20087;-72
2023/07/17 01:58:37;;;;;;;26.40;23.65;;;12.70;99.90;;;;;;5011014;28;20053;-72
2023/07/17 02:01:04;;;;;;;24.85;22.48;;;12.70;99.90;;;;;;5028504;28;20091;-72
2023/07/17 02:03:32;;;;;;;24.85;22.60;;;12.70;99.90;;;;;;5035814;28;20124;-72
2023/07/17 02:05:59;;;;;;;26.65;24.10;;;12.70;99.90;;;;;;5037318;28;20040;-72
2023/07/17 02:08:26;;;;;;;24.75;22.38;;;12.70;99.90;;;;;;5020745;28;20053;-72
2023/07/17 02:10:54;;;;;;;25.48;23.20;;;12.60;99.90;;;;;;5024032;28;20931;-71
2023/07/17 02:13:21;;;;;;;24.00;21.85;;;12.70;99.90;;;;;;5024774;28;20753;-72
2023/07/17 02:15:48;;;;;;;24.60;22.30;;;12.70;99.90;;;;;;5006603;28;20048;-72
2023/07/17 02:18:15;;;;;;;25.17;22.55;;;12.60;99.90;;;;;;5007611;28;20049;-71
2023/07/17 02:20:42;;;;;;;24.45;21.90;;;12.50;99.90;;;;;;5013723;28;20045;-72
2023/07/17 02:23:09;;;;;;;23.85;21.90;;;12.60;99.90;;;;;;5020974;28;20734;-72
2023/07/17 02:25:36;;;;;;;25.27;23.15;;;12.50;99.90;;;;;;5006589;28;20045;-72
2023/07/17 02:28:02;;;;;;;23.92;21.20;;;12.40;99.90;;;;;;5018577;28;20041;-69
2023/07/17 02:30:29;;;;;;;23.55;21.30;;;12.30;99.90;;;;;;5042119;28;20064;-70
2023/07/17 02:32:56;;;;;;;21.85;20.05;;;12.30;99.90;;;;;;5048503;28;20086;-70
2023/07/17 02:35:24;;;;;;;22.77;20.65;;;12.20;99.90;;;;;;5044155;28;20037;-72
2023/07/17 02:37:51;;;;;;;22.77;20.80;;;12.10;99.90;;;;;;5030754;28;20037;-72
2023/07/17 02:40:18;;;;;;;23.95;21.65;;;12.30;99.90;;;;;;5031311;28;20594;-70
2023/07/17 02:42:46;;;;;;;23.60;21.50;;;12.20;99.90;;;;;;5016427;28;20041;-72
2023/07/17 02:45:12;;;;;;;22.80;20.60;;;12.20;99.90;;;;;;5027825;28;20048;-73
2023/07/17 02:47:41;;;;;;;22.67;20.67;;;12.20;99.90;;;;;;5035167;28;20045;-72
2023/07/17 02:50:08;;;;;;;22.58;20.73;;;12.20;99.90;;;;;;5018468;28;20040;-71
2023/07/17 02:52:36;;;;;;;23.60;21.52;;;12.20;99.90;;;;;;5014572;28;20037;-70
2023/07/17 02:55:07;;;;;;;21.95;19.90;;;12.30;99.90;;;;;;5018022;28;20707;-70
2023/07/17 02:57:34;;;;;;;22.05;20.25;;;12.10;99.90;;;;;;5015987;28;20037;-72
2023/07/17 03:00:12;;;;;;;23.15;21.20;;;12.10;99.90;;;;;;5025471;28;20063;-72
2023/07/17 03:02:42;;;;;;;22.80;20.83;;;12.10;99.90;;;;;;5020402;28;20115;-71
2023/07/17 03:05:11;;;;;;;22.08;20.23;;;12.20;99.90;;;;;;5009844;28;20048;-72
2023/07/17 03:07:42;;;;;;;21.60;19.90;;;12.20;99.90;;;;;;5018321;28;20046;-72
2023/07/17 03:10:10;;;;;;;23.17;20.92;;;12.10;99.90;;;;;;5021805;28;20987;-72
2023/07/17 03:12:36;;;;;;;22.60;20.63;;;12.20;99.90;;;;;;5033059;28;20041;-71
2023/07/17 03:15:05;;;;;;;22.42;19.98;;;12.20;99.90;;;;;;5044105;28;20041;-72
2023/07/17 03:17:32;;;;;;;21.90;20.20;;;12.10;99.90;;;;;;5014199;28;20053;-71
2023/07/17 03:20:08;;;;;;;21.73;19.50;;;12.20;99.90;;;;;;5037085;28;20069;-72
2023/07/17 03:22:36;;;;;;;22.95;20.98;;;12.10;99.90;;;;;;5037499;28;20049;-71
2023/07/17 03:25:05;;;;;;;22.30;20.42;;;12.10;99.90;;;;;;5016333;28;20208;-71
2023/07/17 03:27:33;;;;;;;21.92;19.92;;;12.10;99.90;;;;;;5013730;28;20040;-71
2023/07/17 03:30:01;;;;;;;23.15;20.83;;;12.10;99.90;;;;;;5034178;28;20665;-72
2023/07/17 03:32:33;;;;;;;22.23;20.27;;;12.20;99.90;;;;;;5009174;28;20041;-72
2023/07/17 03:35:00;;;;;;;23.58;20.60;;;12.50;99.90;;;;;;5013013;28;20107;-72
2023/07/17 03:37:27;;;;;;;22.95;20.85;;;12.50;99.90;;;;;;5029519;28;20140;-71
2023/07/17 03:39:55;;;;;;;22.70;20.60;;;12.50;99.90;;;;;;5028731;28;20049;-71
2023/07/17 03:42:21;;;;;;;24.67;21.70;;;12.40;99.90;;;;;;5018474;28;20157;-72
2023/07/17 03:44:48;;;;;;;25.25;23.27;;;12.40;99.90;;;;;;5041267;28;20063;-71
2023/07/17 03:47:16;;;;;;;24.42;22.58;;;12.50;99.90;;;;;;5036850;28;20566;-71
2023/07/17 03:49:43;;;;;;;26.17;23.70;;;12.50;99.90;;;;;;5039452;28;20048;-72
2023/07/17 03:52:11;;;;;;;25.88;23.65;;;12.60;99.90;;;;;;5025078;28;20501;-71
2023/07/17 03:54:38;;;;;;;25.75;23.63;;;12.80;99.90;;;;;;5022571;28;20688;-72
2023/07/17 03:57:05;;;;;;;26.30;24.17;;;13.00;99.90;;;;;;5021189;28;20072;-71
2023/07/17 03:59:48;;;;;;;26.30;24.30;;;13.10;99.90;;;;;;5016159;28;20046;-71
2023/07/17 04:02:15;;;;;;;26.48;24.38;;;13.20;99.90;;;;;;5019557;28;20452;-71
2023/07/17 04:04:41;;;;;;;28.17;25.48;;;13.40;99.90;;;;;;5027064;28;20037;-70
2023/07/17 04:07:08;;;;;;;26.42;24.20;;;13.40;99.90;;;;;;5018312;28;20097;-71
2023/07/17 04:09:35;;;;;;;25.85;23.30;;;13.30;99.90;;;;;;5022141;28;20061;-72
2023/07/17 04:12:03;;;;;;;25.95;23.55;;;13.30;99.90;;;;;;5009324;28;20576;-72
2023/07/17 04:14:31;;;;;;;25.40;22.95;;;13.40;99.90;;;;;;5023161;28;20124;-71
2023/07/17 04:16:59;;;;;;;24.60;22.58;;;13.40;99.90;;;;;;5029540;28;20584;-70
2023/07/17 04:19:27;;;;;;;24.42;22.15;;;13.40;99.90;;;;;;5029875;28;20048;-71
2023/07/17 04:21:55;;;;;;;23.75;21.67;;;13.40;99.90;;;;;;5043856;28;20037;-70
2023/07/17 04:24:23;;;;;;;23.73;21.33;;;13.40;99.90;;;;;;5038259;28;20068;-72
2023/07/17 04:26:52;;;;;;;24.10;22.15;;;13.50;99.90;;;;;;5021365;28;20053;-73
2023/07/17 04:29:21;;;;;;;25.67;23.33;;;13.50;99.90;;;;;;5023785;28;20057;-70
2023/07/17 04:31:50;;;;;;;25.55;23.55;;;13.60;99.90;;;;;;5032510;28;20052;-71
2023/07/17 04:34:18;;;;;;;25.85;23.45;;;13.70;99.90;;;;;;5025984;28;20041;-70
2023/07/17 04:36:46;;;;;;;24.52;22.50;;;13.70;99.90;;;;;;5033286;28;20298;-73
2023/07/17 04:39:12;;;;;;;26.25;23.80;;;13.80;99.90;;;;;;5019570;28;20036;-72
2023/07/17 04:41:40;;;;;;;24.95;22.80;;;13.60;99.90;;;;;;5013711;28;20033;-71
2023/07/17 04:44:07;;;;;;;25.88;23.52;;;13.60;99.90;;;;;;5014154;28;20632;-72
2023/07/17 04:46:35;;;;;;;27.23;24.17;;;13.70;99.90;;;;;;5009581;28;20071;-72
2023/07/17 04:49:02;;;;;;;25.73;23.48;;;13.80;99.90;;;;;;5035661;28;20053;-74
2023/07/17 04:51:30;;;;;;;24.85;22.40;;;13.70;99.90;;;;;;5034928;28;21147;-70
2023/07/17 04:53:57;;;;;;;24.73;22.38;;;13.70;99.90;;;;;;5037871;28;20045;-72
2023/07/17 04:56:24;;;;;;;26.48;24.17;;;13.90;99.90;;;;;;5022585;28;20057;-72
2023/07/17 04:58:53;;;;;;;25.40;23.23;;;13.90;99.90;;;;;;5026450;28;20621;-71
2023/07/17 05:01:19;;;;;;;26.05;23.70;;;13.90;99.90;;;;;;5020986;28;20041;-70
2023/07/17 05:03:47;;;;;;;25.10;22.80;;;14.10;99.90;;;;;;5022751;28;20049;-72
2023/07/17 05:06:14;;;;;;;26.88;24.23;;;14.00;99.90;;;;;;5050813;28;20094;-72
2023/07/17 05:08:41;;;;;;;26.00;23.65;;;14.10;99.90;;;;;;5056909;28;20064;-72
2023/07/17 05:11:09;;;;;;;25.70;23.38;;;14.20;99.90;;;;;;5041126;28;20043;-74
2023/07/17 05:13:44;;;;;;;27.17;24.70;;;14.40;99.90;;;;;;5007947;28;20595;-72
2023/07/17 05:16:12;;;;;;;26.40;24.30;;;14.80;99.90;;;;;;5020633;28;20042;-71
2023/07/17 05:18:40;;;;;;;28.42;25.73;;;15.20;99.90;;;;;;5022411;28;20115;-71
2023/07/17 05:21:06;;;;;;;26.83;24.63;;;15.40;99.90;;;;;;5036687;28;20830;-72
2023/07/17 05:23:33;;;;;;;26.88;24.48;;;15.50;99.90;;;;;;5034830;28;20045;-71
2023/07/17 05:26:03;;;;;;;27.80;25.42;;;15.60;99.90;;;;;;5026971;28;20404;-71
2023/07/17 05:28:30;;;;;;;27.17;24.80;;;15.80;99.90;;;;;;5032557;28;20048;-72
2023/07/17 05:30:57;;;;;;;27.45;25.25;;;15.80;99.90;;;;;;5020614;28;20527;-72
2023/07/17 05:33:25;;;;;;;28.65;26.42;;;16.10;99.90;;;;;;5022263;28;20048;-72
2023/07/17 05:35:52;;;;;;;28.33;26.13;;;16.40;99.90;;;;;;5032914;28;20125;-71
2023/07/17 05:38:21;;;;;;;28.63;26.30;;;16.80;99.90;;;;;;5035050;28;20053;-72
2023/07/17 05:40:56;;;;;;;27.73;25.40;;;17.20;99.90;;;;;;5021311;28;20029;-72
2023/07/17 05:43:23;;;;;;;30.02;27.63;;;17.50;99.90;;;;;;5021211;28;20053;-72
2023/07/17 05:45:58;;;;;;;29.52;27.13;;;17.80;99.90;;;;;;5020260;28;20037;-72
2023/07/17 05:48:26;;;;;;;28.55;26.40;;;18.30;99.90;;;;;;5008152;28;20451;-72
2023/07/17 05:50:53;;;;;;;28.20;26.10;;;18.50;99.90;;;;;;5019830;28;20047;-72
2023/07/17 05:53:20;;;;;;;26.85;24.95;;;18.50;99.90;;;;;;5022512;28;20143;-72
2023/07/17 05:55:47;;;;;;;27.77;25.67;;;18.20;99.90;;;;;;5022589;28;20046;-72
2023/07/17 05:58:14;;;;;;;28.65;26.52;;;18.10;99.90;;;;;;5027029;28;20064;-72
2023/07/17 06:00:41;;;;;;;26.70;24.52;;;18.20;99.90;;;;;;5018152;28;20535;-73
2023/07/17 06:03:09;;;;;;;28.67;26.45;;;18.20;99.90;;;;;;5022804;28;20507;-71
2023/07/17 06:05:37;;;;;;;28.38;25.90;;;18.50;99.90;;;;;;5020575;28;20048;-72
2023/07/17 06:08:05;;;;;;;27.58;25.58;;;18.50;99.90;;;;;;5024818;28;20041;-72
2023/07/17 06:10:32;;;;;;;27.20;25.30;;;18.70;99.90;;;;;;5015387;28;20041;-71
2023/07/17 06:12:59;;;;;;;28.02;25.85;;;18.90;99.90;;;;;;5021133;28;20057;-72
2023/07/17 06:15:26;;;;;;;27.80;25.67;;;19.20;99.90;;;;;;5022620;28;20097;-72
2023/07/17 06:17:53;;;;;;;28.42;26.33;;;19.20;99.90;;;;;;5018754;28;20052;-71
2023/07/17 06:20:20;;;;;;;27.90;26.10;;;19.10;99.90;;;;;;5025319;28;20048;-73
2023/07/17 06:22:47;;;;;;;28.88;26.88;;;19.00;99.90;;;;;;5022375;28;20037;-71
2023/07/17 06:25:14;;;;;;;29.52;27.52;;;19.00;99.90;;;;;;5022757;28;20037;-71
2023/07/17 06:27:41;;;;;;;27.92;26.05;;;19.00;99.90;;;;;;5015264;28;20057;-71
2023/07/17 06:30:10;;;;;;;28.00;26.00;;;19.00;99.90;;;;;;5026965;28;20709;-72
2023/07/17 06:32:37;;;;;;;29.35;27.30;;;19.10;99.90;;;;;;5013131;28;20053;-71
2023/07/17 06:35:05;;;;;;;28.73;26.83;;;19.10;99.90;;;;;;5012844;28;20134;-71
2023/07/17 06:37:32;;;;;;;28.52;26.63;;;19.10;99.90;;;;;;5018716;28;20562;-71
2023/07/17 06:39:59;;;;;;;28.77;26.67;;;19.10;99.90;;;;;;5018208;28;20049;-72
2023/07/17 06:42:26;;;;;;;28.88;26.83;;;19.20;99.90;;;;;;5009246;28;20750;-71
2023/07/17 06:44:53;;;;;;;30.38;27.83;;;19.40;99.90;;;;;;5017357;28;20136;-72
2023/07/17 06:47:19;;;;;;;29.30;27.23;;;19.40;99.90;;;;;;5016595;28;20106;-71
2023/07/17 06:50:02;;;;;;;29.38;27.15;;;19.60;99.90;;;;;;5036445;28;20415;-71
2023/07/17 06:52:29;;;;;;;29.45;27.05;;;19.90;99.90;;;;;;5024135;28;20104;-72
2023/07/17 06:54:56;;;;;;;29.30;27.20;;;20.00;99.90;;;;;;5017334;28;20559;-71
2023/07/17 06:57:32;;;;;;;28.80;26.70;;;20.20;99.90;;;;;;5013534;28;20634;-72
2023/07/17 06:59:59;;;;;;;29.02;27.02;;;20.00;99.90;;;;;;5023108;28;20176;-71
2023/07/17 07:02:26;;;;;;;29.55;27.48;;;20.20;99.90;;;;;;5017723;28;20103;-70
2023/07/17 07:04:52;;;;;;;29.25;27.13;;;19.80;99.90;;;;;;5037752;28;20037;-72
2023/07/17 07:07:19;;;;;;;29.92;27.48;;;19.70;99.90;;;;;;5020021;28;20072;-71
2023/07/17 07:09:46;;;;;;;30.25;28.25;;;19.70;99.90;;;;;;5019873;28;20037;-71
2023/07/17 07:12:13;;;;;;;30.65;28.60;;;19.50;99.90;;;;;;5018633;28;20045;-71
2023/07/17 07:14:41;;;;;;;29.30;27.38;;;19.60;99.90;;;;;;5021004;28;20065;-71
2023/07/17 07:17:08;;;;;;;29.58;27.42;;;19.60;99.90;;;;;;5038561;28;20068;-71
2023/07/17 07:19:35;;;;;;;31.35;28.98;;;19.80;99.90;;;;;;5038783;28;20037;-72
2023/07/17 07:22:02;;;;;;;29.25;27.10;;;19.90;99.90;;;;;;5040929;28;20057;-72
2023/07/17 07:24:29;;;;;;;29.85;27.65;;;19.70;99.90;;;;;;5018808;28;20772;-72
2023/07/17 07:26:55;;;;;;;29.77;27.77;;;19.80;99.90;;;;;;4997812;28;20536;-72
2023/07/17 07:29:22;;;;;;;29.75;27.45;;;19.60;99.90;;;;;;5030162;28;20049;-72
2023/07/17 07:31:49;;;;;;;29.20;27.05;;;19.70;99.90;;;;;;5016346;28;20045;-72
2023/07/17 07:34:16;;;;;;;30.90;28.80;;;19.70;99.90;;;;;;5038115;28;20053;-73
2023/07/17 07:36:43;;;;;;;30.63;28.48;;;19.80;99.90;;;;;;5017623;28;20048;-69
2023/07/17 07:39:09;;;;;;;30.77;28.55;;;19.90;99.90;;;;;;5021701;28;20049;-72
2023/07/17 07:41:36;;;;;;;29.83;27.73;;;20.20;99.90;;;;;;5019549;28;20096;-70
2023/07/17 07:44:04;;;;;;;30.52;28.33;;;20.50;99.90;;;;;;5024150;28;20053;-70
2023/07/17 07:46:31;;;;;;;30.25;28.25;;;20.70;99.90;;;;;;5024296;28;20470;-70
2023/07/17 07:48:58;;;;;;;30.75;28.85;;;20.90;99.90;;;;;;5022528;28;20045;-72
2023/07/17 07:51:24;;;;;;;32.58;30.15;;;21.00;99.90;;;;;;5022098;28;20045;-71
2023/07/17 07:53:51;;;;;;;30.95;28.70;;;20.60;99.90;;;;;;5015836;28;20099;-71
2023/07/17 07:56:18;;;;;;;32.00;30.00;;;20.50;99.90;;;;;;5017693;28;20046;-71
2023/07/17 07:58:45;;;;;;;31.38;29.13;;;20.70;99.90;;;;;;5015441;28;20514;-71
2023/07/17 08:01:12;;;;;;;31.60;29.40;;;20.80;99.90;;;;;;5017161;28;20080;-72
2023/07/17 08:03:40;;;;;;;31.02;28.83;;;20.90;99.90;;;;;;5020070;28;20041;-72
2023/07/17 08:06:07;;;;;;;31.55;29.35;;;20.80;99.90;;;;;;5003161;28;20038;-70
2023/07/17 08:08:34;;;;;;;27.02;25.13;;;20.80;99.90;;;;;;5018643;28;20111;-70
2023/07/17 08:11:03;;;;;;;31.95;29.58;;;21.00;99.90;;;;;;5020547;28;20616;-70
2023/07/17 08:13:30;;;;;;;31.65;29.35;;;20.90;99.90;;;;;;5011476;28;20450;-70
2023/07/17 08:15:57;;;;;;;32.10;29.83;;;20.80;99.90;;;;;;5011908;28;20057;-69
2023/07/17 08:18:24;;;;;;;33.00;30.75;;;20.70;99.90;;;;;;5016859;28;20128;-70
2023/07/17 08:20:50;;;;;;;35.90;33.22;;;21.10;99.90;;;;;;5011334;28;20037;-69
2023/07/17 08:23:25;;;;;;;32.38;30.15;;;21.20;99.90;;;;;;5038782;28;20056;-69
2023/07/17 08:25:52;;;;;;;34.28;32.00;;;21.40;99.90;;;;;;5022645;28;20500;-71
2023/07/17 08:28:19;;;;;;;33.58;31.40;;;21.60;99.90;;;;;;5026394;28;20053;-70
2023/07/17 08:30:46;;;;;;;34.08;31.48;;;21.80;99.90;;;;;;5011974;28;20130;-70
2023/07/17 08:33:13;;;;;;;31.05;29.05;;;21.80;99.90;;;;;;5027195;28;20049;-70
2023/07/17 08:35:39;;;;;;;34.00;31.77;;;21.60;99.90;;;;;;5016548;28;20046;-70
2023/07/17 08:38:06;;;;;;;33.42;31.33;;;20.90;99.90;;;;;;5013595;28;20057;-71
2023/07/17 08:40:38;;;;;;;33.42;31.15;;;20.80;99.90;;;;;;5019501;28;20132;-71
2023/07/17 08:43:06;;;;;;;34.00;31.33;;;21.00;99.90;;;;;;5040833;28;20055;-71
2023/07/17 08:45:34;;;;;;;32.90;30.70;;;21.20;99.90;;;;;;5016481;28;20080;-70
2023/07/17 08:48:02;;;;;;;33.03;30.58;;;21.40;99.90;;;;;;5020348;28;20603;-70
2023/07/17 08:50:30;;;;;;;33.53;31.10;;;21.50;99.90;;;;;;5019597;28;20498;-71
2023/07/17 08:52:57;;;;;;;33.83;31.63;;;21.50;99.90;;;;;;5016139;28;20140;-71
2023/07/17 08:55:25;;;;;;;33.88;31.67;;;21.70;99.90;;;;;;5017250;28;20064;-71
2023/07/17 08:57:53;;;;;;;34.88;32.22;;;21.90;99.90;;;;;;5023737;28;20038;-70
2023/07/17 09:00:23;;;;;;;32.85;30.75;;;22.30;99.90;;;;;;5003430;28;20045;-72
2023/07/17 09:02:50;;;;;;;34.40;32.00;;;22.80;99.90;;;;;;5020981;28;20049;-71
2023/07/17 09:05:17;;;;;;;33.72;31.00;;;22.80;99.90;;;;;;5033162;28;20048;-71
2023/07/17 09:07:44;;;;;;;33.92;31.40;;;22.80;99.90;;;;;;5022538;28;20052;-72
2023/07/17 09:10:23;;;;;;;35.53;33.00;;;22.70;99.90;;;;;;5018010;28;20049;-71
2023/07/17 09:13:00;;;;;;;34.45;32.00;;;22.90;99.90;;;;;;5023887;28;20050;-71
2023/07/17 09:15:29;;;;;;;35.40;32.83;;;23.00;99.90;;;;;;5014822;28;20057;-71
2023/07/17 09:17:56;;;;;;;36.53;33.92;;;23.20;99.90;;;;;;5016211;28;20128;-71
2023/07/17 09:20:24;;;;;;;33.92;31.63;;;22.80;99.90;;;;;;5035165;28;20045;-69
2023/07/17 09:22:59;;;;;;;37.35;34.55;;;22.50;99.90;;;;;;5013162;28;20044;-70
2023/07/17 09:25:27;;;;;;;33.67;31.27;;;22.30;99.90;;;;;;5014816;28;20045;-71
2023/07/17 09:27:55;;;;;;;33.38;30.75;;;22.30;99.90;;;;;;5020728;28;20053;-70
2023/07/17 09:30:25;;;;;;;33.55;31.27;;;22.30;99.90;;;;;;5017613;28;20053;-69
2023/07/17 09:32:52;;;;;;;35.15;32.85;;;22.30;99.90;;;;;;5014863;28;20049;-70
2023/07/17 09:35:20;;;;;;;32.35;30.20;;;22.10;99.90;;;;;;5025654;28;20081;-73
2023/07/17 09:37:47;;;;;;;35.35;32.95;;;22.20;99.90;;;;;;5020474;28;20667;-71
2023/07/17 09:40:17;;;;;;;35.20;32.80;;;21.80;99.90;;;;;;5024036;28;20044;-70
2023/07/17 09:42:51;;;;;;;31.70;29.40;;;22.10;99.90;;;;;;5017464;28;20136;-70
2023/07/17 09:45:19;;;;;;;35.60;33.20;;;22.40;99.90;;;;;;5027427;28;20041;-70
2023/07/17 09:47:50;;;;;;;31.30;29.30;;;22.40;99.90;;;;;;5046797;28;20043;-70
2023/07/17 09:50:23;;;;;;;32.22;30.02;;;22.60;99.90;;;;;;5043595;28;20044;-70
2023/07/17 09:52:51;;;;;;;32.28;30.05;;;22.20;99.90;;;;;;5030174;28;20045;-70
2023/07/17 09:55:26;;;;;;;36.13;33.50;;;22.00;99.90;;;;;;5022942;28;20044;-71
2023/07/17 09:57:57;;;;;;;38.08;35.42;;;21.70;99.90;;;;;;5030639;28;20076;-72
2023/07/17 10:00:26;;;;;;;36.47;34.03;;;22.00;99.90;;;;;;5029710;28;20534;-71
2023/07/17 10:03:07;;;;;;;36.45;33.65;;;22.40;99.90;;;;;;5025647;28;20041;-71
2023/07/17 10:05:36;;;;;;;34.10;31.50;;;22.60;99.90;;;;;;5015116;28;20056;-71
2023/07/17 10:08:05;;;;;;;37.70;34.90;;;22.70;99.90;;;;;;5002604;28;20085;-71
2023/07/17 10:10:32;;;;;;;37.60;34.85;;;23.00;99.90;;;;;;5014219;28;20045;-72
2023/07/17 10:12:59;;;;;;;37.50;34.90;;;22.90;99.90;;;;;;5018661;28;20636;-72
2023/07/17 10:15:27;;;;;;;34.10;31.60;;;22.90;99.90;;;;;;5017523;28;20042;-74
2023/07/17 10:17:58;;;;;;;32.63;30.42;;;22.90;99.90;;;;;;5016068;28;20504;-71
2023/07/17 10:20:29;;;;;;;32.35;29.92;;;22.60;99.90;;;;;;5017114;28;20053;-70
2023/07/17 10:22:55;;;;;;;32.50;29.98;;;22.20;99.90;;;;;;5016078;28;20060;-70
2023/07/17 10:25:26;;;;;;;33.88;31.40;;;22.00;99.90;;;;;;5016833;28;20803;-71
2023/07/17 10:28:02;;;;;;;32.75;30.45;;;21.90;99.90;;;;;;5016229;28;20665;-70
2023/07/17 10:30:31;;;;;;;34.58;31.83;;;21.50;99.90;;;;;;5021520;28;20049;-72
2023/07/17 10:33:13;;;;;;;34.40;31.92;;;21.40;99.90;;;;;;5014080;28;20060;-72
2023/07/17 10:35:50;;;;;;;32.30;29.75;;;21.20;99.90;;;;;;5017282;28;20103;-70
2023/07/17 10:38:28;;;;;;;35.85;32.75;;;21.10;99.90;;;;;;5029732;28;20033;-71
2023/07/17 10:41:14;;;;;;;34.10;31.63;;;21.60;99.90;;;;;;5019909;28;20052;-70
2023/07/17 10:43:54;;;;;;;32.38;30.00;;;21.90;99.90;;;;;;5015323;28;20741;-73
2023/07/17 10:46:41;;;;;;;32.47;30.02;;;21.70;99.90;;;;;;5020356;28;20555;-72
2023/07/17 10:49:16;;;;;;;31.05;28.80;;;21.70;99.90;;;;;;5018318;28;20046;-71
2023/07/17 10:51:48;;;;;;;38.13;35.38;;;21.70;99.90;;;;;;5015264;28;20041;-71
2023/07/17 10:54:16;;;;;;;37.78;34.90;;;22.00;99.90;;;;;;5014009;28;20048;-71
2023/07/17 10:56:45;;;;;;;36.97;34.03;;;22.70;99.90;;;;;;5019738;28;20044;-72
2023/07/17 10:59:17;;;;;;;37.95;35.15;;;23.00;99.90;;;;;;5014251;28;20048;-71
2023/07/17 11:01:45;;;;;;;35.28;32.67;;;23.20;99.90;;;;;;5021679;28;20072;-71
2023/07/17 11:04:12;;;;;;;34.83;32.13;;;23.10;99.90;;;;;;5012326;28;20515;-70
2023/07/17 11:06:39;;;;;;;34.72;32.10;;;22.70;99.90;;;;;;5016109;28;20048;-71
2023/07/17 11:09:07;;;;;;;36.90;33.42;;;22.30;99.90;;;;;;5019876;28;20057;-71
2023/07/17 11:11:34;;;;;;;36.20;33.55;;;22.10;99.90;;;;;;5020146;28;20041;-71
2023/07/17 11:14:00;;;;;;;34.60;32.15;;;21.80;99.90;;;;;;5019169;28;20091;-71
2023/07/17 11:16:28;;;;;;;37.85;35.05;;;21.50;99.90;;;;;;5018456;28;20106;-73
2023/07/17 11:18:55;;;;;;;36.85;34.03;;;21.50;99.90;;;;;;5022485;28;20503;-71
2023/07/17 11:21:25;;;;;;;34.30;31.55;;;21.80;99.90;;;;;;5022326;28;20107;-71
2023/07/17 11:24:06;;;;;;;38.80;35.63;;;22.10;99.90;;;;;;5021235;28;20128;-70
2023/07/17 11:26:38;;;;;;;34.45;31.65;;;21.70;99.90;;;;;;5015022;28;20404;-71
2023/07/17 11:29:04;;;;;;;40.30;37.20;;;21.80;99.90;;;;;;5016112;28;20041;-71
2023/07/17 11:31:34;;;;;;;37.40;34.70;;;21.70;99.90;;;;;;5019369;28;20049;-71
2023/07/17 11:34:07;;;;;;;38.42;35.72;;;21.90;99.90;;;;;;5011867;28;20613;-72
2023/07/17 11:36:39;;;;;;;39.78;37.13;;;22.20;99.90;;;;;;5039079;28;20132;-70
2023/07/17 11:39:18;;;;;;;33.50;31.25;;;22.30;99.90;;;;;;5018056;28;20119;-71
2023/07/17 11:41:47;;;;;;;33.40;30.70;;;23.00;99.90;;;;;;5016918;28;20045;-72
2023/07/17 11:44:24;;;;;;;39.70;36.70;;;22.90;99.90;;;;;;5022894;28;21306;-72
2023/07/17 11:46:57;;;;;;;32.80;30.48;;;22.80;99.90;;;;;;5016923;28;20037;-71
2023/07/17 11:49:25;;;;;;;36.67;34.00;;;23.20;99.90;;;;;;5014876;28;20132;-72
2023/07/17 11:51:52;;;;;;;33.33;30.88;;;23.20;99.90;;;;;;5027993;28;20126;-71
2023/07/17 11:54:19;;;;;;;35.63;32.97;;;23.20;99.90;;;;;;5017648;28;20048;-71
2023/07/17 11:56:46;;;;;;;34.22;31.63;;;22.90;99.90;;;;;;5020056;28;20041;-72
2023/07/17 11:59:20;;;;;;;40.28;37.08;;;22.50;99.90;;;;;;5024018;28;20045;-72
2023/07/17 12:01:48;;;;;;;39.25;36.45;;;22.70;99.90;;;;;;5027478;28;20045;-72
2023/07/17 12:04:21;;;;;;;34.38;31.58;;;23.20;99.90;;;;;;5020826;28;22895;-71
2023/07/17 12:06:49;;;;;;;34.72;32.28;;;23.00;99.90;;;;;;5029085;28;20045;-72
2023/07/17 12:09:17;;;;;;;36.33;33.53;;;22.50;99.90;;;;;;5019628;28;20138;-72
2023/07/17 12:11:45;;;;;;;37.95;35.13;;;22.10;99.90;;;;;;5040506;28;20053;-72
2023/07/17 12:14:15;;;;;;;39.67;36.70;;;21.90;99.90;;;;;;5022999;28;20506;-71
2023/07/17 12:16:44;;;;;;;38.28;35.53;;;21.90;99.90;;;;;;5024378;28;20045;-71
2023/07/17 12:19:11;;;;;;;33.97;31.50;;;22.60;99.90;;;;;;5019098;28;20037;-71
2023/07/17 12:21:38;;;;;;;33.65;31.10;;;23.10;99.90;;;;;;5028066;28;20100;-72
2023/07/17 12:24:08;;;;;;;38.50;35.83;;;23.10;99.90;;;;;;5019176;28;20037;-70
2023/07/17 12:26:35;;;;;;;36.88;33.83;;;22.90;99.90;;;;;;5027592;28;20053;-73
2023/07/17 12:29:03;;;;;;;37.83;35.13;;;22.70;99.90;;;;;;5020541;28;20137;-71
2023/07/17 12:31:30;;;;;;;39.90;37.13;;;22.20;99.90;;;;;;5026716;28;20045;-72
2023/07/17 12:33:57;;;;;;;39.83;37.03;;;22.40;99.90;;;;;;5023220;28;20037;-70